Map

Track Data

SID SEASON NUMBER BASIN SUBBASIN NAME ISO_TIME NATURE LAT LON WMO_WIND WMO_PRES WMO_AGENCY TRACK_TYPE DIST2LAND LANDFALL IFLAG USA_AGENCY USA_ATCF_ID USA_LAT USA_LON USA_RECORD USA_STATUS USA_WIND USA_PRES USA_SSHS USA_R34_NE USA_R34_SE USA_R34_SW USA_R34_NW USA_R50_NE USA_R50_SE USA_R50_SW USA_R50_NW USA_R64_NE USA_R64_SE USA_R64_SW USA_R64_NW USA_POCI USA_ROCI USA_RMW USA_EYE TOKYO_LAT TOKYO_LON TOKYO_GRADE TOKYO_WIND TOKYO_PRES TOKYO_R50_DIR TOKYO_R50_LONG TOKYO_R50_SHORT TOKYO_R30_DIR TOKYO_R30_LONG TOKYO_R30_SHORT TOKYO_LAND CMA_LAT CMA_LON CMA_CAT CMA_WIND CMA_PRES HKO_LAT HKO_LON HKO_CAT HKO_WIND HKO_PRES NEWDELHI_LAT NEWDELHI_LON NEWDELHI_GRADE NEWDELHI_WIND NEWDELHI_PRES NEWDELHI_CI NEWDELHI_DP NEWDELHI_POCI REUNION_LAT REUNION_LON REUNION_TYPE REUNION_WIND REUNION_PRES REUNION_TNUM REUNION_CI REUNION_RMW REUNION_R34_NE REUNION_R34_SE REUNION_R34_SW REUNION_R34_NW REUNION_R50_NE REUNION_R50_SE REUNION_R50_SW REUNION_R50_NW REUNION_R64_NE REUNION_R64_SE REUNION_R64_SW REUNION_R64_NW BOM_LAT BOM_LON BOM_TYPE BOM_WIND BOM_PRES BOM_TNUM BOM_CI BOM_RMW BOM_R34_NE BOM_R34_SE BOM_R34_SW BOM_R34_NW BOM_R50_NE BOM_R50_SE BOM_R50_SW BOM_R50_NW BOM_R64_NE BOM_R64_SE BOM_R64_SW BOM_R64_NW BOM_ROCI BOM_POCI BOM_EYE BOM_POS_METHOD BOM_PRES_METHOD NADI_LAT NADI_LON NADI_CAT NADI_WIND NADI_PRES WELLINGTON_LAT WELLINGTON_LON WELLINGTON_WIND WELLINGTON_PRES DS824_LAT DS824_LON DS824_STAGE DS824_WIND DS824_PRES TD9636_LAT TD9636_LON TD9636_STAGE TD9636_WIND TD9636_PRES TD9635_LAT TD9635_LON TD9635_WIND TD9635_PRES TD9635_ROCI NEUMANN_LAT NEUMANN_LON NEUMANN_CLASS NEUMANN_WIND NEUMANN_PRES MLC_LAT MLC_LON MLC_CLASS MLC_WIND MLC_PRES USA_GUST BOM_GUST BOM_GUST_PER REUNION_GUST REUNION_GUST_PER USA_SEAHGT USA_SEARAD_NE USA_SEARAD_SE USA_SEARAD_SW USA_SEARAD_NW STORM_SPEED STORM_DIR
1937003S13047 1937 1 SI MM NOT_NAMED 1937-01-03 06:00:00 NR -13.0000 47.1000 reunion main 116 116 _____O________ -1 -13.0000 47.1000 99 9.90000 0 0
1937003S13047 1937 1 SI MM NOT_NAMED 1937-01-03 09:00:00 NR -13.0080 47.1077 main 116 116 _____P________ -1 -13.0080 47.1077 99 0 0
1937003S13047 1937 1 SI MM NOT_NAMED 1937-01-03 12:00:00 NR -13.0187 47.1124 main 116 116 _____P________ -1 -13.0187 47.1124 99 0 0
1937003S13047 1937 1 SI MM NOT_NAMED 1937-01-03 15:00:00 NR -13.0352 47.1108 main 116 109 _____P________ -1 -13.0352 47.1108 99 0 0
1937003S13047 1937 1 SI MM NOT_NAMED 1937-01-03 18:00:00 NR -13.0600 47.0998 main 109 109 _____P________ -1 -13.0600 47.0998 99 1 207
1937003S13047 1937 1 SI MM NOT_NAMED 1937-01-03 21:00:00 NR -13.0961 47.0764 main 109 109 _____P________ -1 -13.0961 47.0764 99 1 215
1937003S13047 1937 1 SI MM NOT_NAMED 1937-01-04 00:00:00 NR -13.1463 47.0374 main 118 112 _____P________ -1 -13.1463 47.0374 99 2 220
1937003S13047 1937 1 SI MM NOT_NAMED 1937-01-04 03:00:00 NR -13.2133 46.9796 main 112 112 _____P________ -1 -13.2133 46.9796 99 2 220
1937003S13047 1937 1 SI MM NOT_NAMED 1937-01-04 06:00:00 NR -13.3000 46.9000 reunion main 117 113 _____O________ -1 -13.3000 46.9000 99 9.90000 3 222
1937003S13047 1937 1 SI MM NOT_NAMED 1937-01-04 09:00:00 NR -13.4081 46.7961 main 123 123 _____P________ -1 -13.4081 46.7961 99 3 223
1937003S13047 1937 1 SI MM NOT_NAMED 1937-01-04 12:00:00 NR -13.5352 46.6687 main 131 130 _____P________ -1 -13.5352 46.6687 99 4 225
1937003S13047 1937 1 SI MM NOT_NAMED 1937-01-04 15:00:00 NR -13.6777 46.5195 main 151 151 _____P________ -1 -13.6777 46.5195 99 4 226
1937003S13047 1937 1 SI MM NOT_NAMED 1937-01-04 18:00:00 NR -13.8322 46.3499 main 163 155 _____P________ -1 -13.8322 46.3499 99 5 227
1937003S13047 1937 1 SI MM NOT_NAMED 1937-01-04 21:00:00 NR -13.9952 46.1616 main 155 149 _____P________ -1 -13.9952 46.1616 99 5 229
1937003S13047 1937 1 SI MM NOT_NAMED 1937-01-05 00:00:00 NR -14.1631 45.9561 main 149 149 _____P________ -1 -14.1631 45.9561 99 5 231
1937003S13047 1937 1 SI MM NOT_NAMED 1937-01-05 03:00:00 NR -14.3326 45.7350 main 156 147 _____P________ -1 -14.3326 45.7350 99 6 233
1937003S13047 1937 1 SI MM NOT_NAMED 1937-01-05 06:00:00 NR -14.5000 45.5000 reunion main 155 147 _____O________ -1 -14.5000 45.5000 99 9.90000 6 237
1937003S13047 1937 1 SI MM NOT_NAMED 1937-01-05 09:00:00 NR -14.6427 45.2488 main 151 134 _____P________ -1 -14.6427 45.2488 99 6 241
1937003S13047 1937 1 SI MM NOT_NAMED 1937-01-05 12:00:00 NR -14.7844 44.9790 main 134 127 _____P________ -1 -14.7844 44.9790 99 6 242
1937003S13047 1937 1 SI MM NOT_NAMED 1937-01-05 15:00:00 NR -14.9266 44.6966 main 130 124 _____P________ -1 -14.9266 44.6966 99 6 243
1937003S13047 1937 1 SI MM NOT_NAMED 1937-01-05 18:00:00 NR -15.0709 44.4074 main 125 124 _____P________ -1 -15.0709 44.4074 99 6 242
1937003S13047 1937 1 SI MM NOT_NAMED 1937-01-05 21:00:00 NR -15.2188 44.1173 main 127 110 _____P________ -1 -15.2188 44.1173 99 9 237
1937003S13047 1937 1 SI MM NOT_NAMED 1937-01-06 00:00:00 TS -15.5375 43.6656 main 116 116 _____P___O____ -1 -15.3719 43.8321 99 -16.2000 43.0000 TC 35 9 230
1937003S13047 1937 1 SI MM NOT_NAMED 1937-01-06 03:00:00 TS -15.8203 43.3685 main 120 120 _____P___P____ -1 -15.5317 43.5577 99 -16.3975 42.9900 TC 35 8 221
1937003S13047 1937 1 SI MM NOT_NAMED 1937-01-06 06:00:00 TS -16.1000 43.1500 reunion main 130 138 _____O___OO___ -1 -15.7000 43.3000 99 9.90000 -16.6000 43.0000 TC 35 -16.2000 43.0000 2 6 212
1937003S13047 1937 1 SI MM NOT_NAMED 1937-01-06 09:00:00 TS -16.3557 43.0208 main 147 140 _____P___PP___ -1 -15.8755 43.0025 99 -16.8075 43.0425 TC 35 -16.4125 43.0141 2 5 204
1937003S13047 1937 1 SI MM NOT_NAMED 1937-01-06 12:00:00 TS -16.5541 42.9399 main 144 138 _____P___OP___ -1 -16.0587 42.7103 99 -17.0000 43.1000 TC 35 -16.6200 43.0325 2 4 200
1937003S13047 1937 1 SI MM NOT_NAMED 1937-01-06 15:00:00 TS -16.7414 42.8795 main 138 132 _____P___PP___ -1 -16.2492 42.4364 99 -17.1575 43.1425 TC 35 -16.8175 43.0597 2 4 196
1937003S13047 1937 1 SI MM NOT_NAMED 1937-01-06 18:00:00 TS -16.9155 42.8312 main 134 125 _____P___OO___ -1 -16.4466 42.1937 99 -17.3000 43.2000 TC 35 -17.0000 43.1000 2 4 189
1937003S13047 1937 1 SI MM NOT_NAMED 1937-01-06 21:00:00 TS -17.0884 42.8149 main 125 121 _____P___PP___ -1 -16.6507 41.9955 99 -17.4500 43.2925 TC 35 -17.1644 43.1566 2 3 0
1937003S13047 1937 1 SI MM NOT_NAMED 1937-01-07 00:00:00 TS -17.2587 42.8275 main 118 106 _____P___OP___ -1 -16.8611 41.8550 99 -17.6000 43.4000 TC 35 -17.3150 43.2275 2 3 173
1937003S13047 1937 1 SI MM NOT_NAMED 1937-01-07 03:00:00 TS -17.4286 42.8650 main 106 106 _____P___PP___ -1 -17.0777 41.7854 99 -17.7500 43.5000 TC 35 -17.4581 43.3097 2 4 163
1937003S13047 1937 1 SI MM NOT_NAMED 1937-01-07 06:00:00 TS -17.6000 42.9333 reunion main 106 96 _____O___OO___ -1 -17.3000 41.8000 99 9.90000 -17.9000 43.6000 TC 35 -17.6000 43.4000 2 4 155
1937003S13047 1937 1 SI MM NOT_NAMED 1937-01-07 09:00:00 TS -17.7907 43.0435 main 101 84 _____P___PP___ -1 -17.5566 41.9376 99 -18.0575 43.7000 TC 35 -17.7581 43.4928 2 5 148
1937003S13047 1937 1 SI MM NOT_NAMED 1937-01-07 12:00:00 TS -17.9796 43.1851 main 84 73 _____P___OP___ -1 -17.8237 42.1628 99 -18.2000 43.8000 TC 35 -17.9150 43.5925 2 5 141
1937003S13047 1937 1 SI MM NOT_NAMED 1937-01-07 15:00:00 TS -18.1550 43.3516 main 63 52 _____P___PP___ -1 -18.0933 42.4587 99 -18.3075 43.9000 TC 35 -18.0644 43.6959 2 5 135
1937003S13047 1937 1 SI MM NOT_NAMED 1937-01-07 18:00:00 TS -18.3191 43.5361 main 52 31 _____P___OO___ -1 -18.3573 42.8084 99 -18.4000 44.0000 TC 35 -18.2000 43.8000 2 5 132
1937003S13047 1937 1 SI MM NOT_NAMED 1937-01-07 21:00:00 TS -18.4701 43.7199 main 33 23 _____P___PP___ -1 -18.6078 43.1948 99 -18.4925 44.0851 TC 35 -18.3102 43.8799 2 5 129
1937003S13047 1937 1 SI MM NOT_NAMED 1937-01-08 00:00:00 TS -18.6147 43.9211 main 23 10 _____P___OP___ -1 -18.8369 43.6006 99 -18.6000 44.2000 TC 35 -18.4073 43.9628 2 5 126
1937003S13047 1937 1 SI MM NOT_NAMED 1937-01-08 03:00:00 TS -18.7625 44.1500 main 10 0 _____P___PP___ -1 -19.0368 44.0082 99 -18.7500 44.3775 TC 35 -18.5008 44.0643 2 5 122
1937003S13047 1937 1 SI MM NOT_NAMED 1937-01-08 06:00:00 TS -18.9000 44.4000 reunion main 0 0 _____O___OO___ -1 -19.2000 44.4000 99 9.90000 -18.9000 44.6000 TC 35 -18.6000 44.2000 2 5 119
1937003S13047 1937 1 SI MM NOT_NAMED 1937-01-08 09:00:00 TS -19.0194 44.6479 main 0 0 _____P___PP___ -1 -19.3130 44.7006 99 -19.0150 44.8500 TC 35 -18.7301 44.3929 2 5 115
1937003S13047 1937 1 SI MM NOT_NAMED 1937-01-08 12:00:00 TS -19.1189 44.9047 main 0 0 _____P___OP___ -1 -19.3914 44.9943 99 -19.1000 45.1000 TC 35 -18.8652 44.6197 2 5 110
1937003S13047 1937 1 SI MM NOT_NAMED 1937-01-08 15:00:00 TS -19.1967 45.1506 main 0 0 _____P___PP___ -1 -19.4401 45.2826 99 -19.1575 45.3075 TC 35 -18.9926 44.8617 2 5 106
1937003S13047 1937 1 SI MM NOT_NAMED 1937-01-08 18:00:00 TS -19.2545 45.3890 main 0 0 _____P___OO___ -1 -19.4636 45.5671 99 -19.2000 45.5000 TC 35 -19.1000 45.1000 2 4 103
1937003S13047 1937 1 SI MM NOT_NAMED 1937-01-08 21:00:00 TS -19.2973 45.6085 main 0 0 _____P___PP___ -1 -19.4667 45.8494 99 -19.2499 45.6850 TC 35 -19.1754 45.2911 2 4 100
1937003S13047 1937 1 SI MM NOT_NAMED 1937-01-09 00:00:00 TS -19.3279 45.8363 main 0 0 _____P___OP___ -1 -19.4540 46.1312 99 -19.3000 45.9000 TC 35 -19.2296 45.4777 2 5 97
1937003S13047 1937 1 SI MM NOT_NAMED 1937-01-09 03:00:00 TS -19.3523 46.0915 main 0 0 _____P___PP___ -1 -19.4302 46.4142 99 -19.3575 46.1850 TC 35 -19.2691 45.6755 2 5 94
1937003S13047 1937 1 SI MM NOT_NAMED 1937-01-09 06:00:00 TS -19.3667 46.3667 reunion main 0 0 _____O___OO___ -1 -19.4000 46.7000 99 9.90000 -19.4000 46.5000 TC 35 -19.3000 45.9000 2 5 93
1937003S13047 1937 1 SI MM NOT_NAMED 1937-01-09 09:00:00 TS -19.3798 46.6627 main 0 0 _____P___PP___ -1 -19.3913 47.0012 99 -19.4075 46.8075 TC 35 -19.3405 46.1793 2 6 92
1937003S13047 1937 1 SI MM NOT_NAMED 1937-01-09 12:00:00 TS -19.3819 46.9634 main 0 0 _____P___OP___ -1 -19.3729 47.3052 99 -19.4000 47.1000 TC 35 -19.3727 46.4849 2 6 90
1937003S13047 1937 1 SI MM NOT_NAMED 1937-01-09 15:00:00 TS -19.3822 47.2553 main 0 0 _____P___PP___ -1 -19.3455 47.6104 99 -19.4074 47.3575 TC 35 -19.3936 46.7981 2 5 89
1937003S13047 1937 1 SI MM NOT_NAMED 1937-01-09 18:00:00 TS -19.3699 47.5384 main 0 0 _____P___OO___ -1 -19.3098 47.9152 99 -19.4000 47.6000 TC 35 -19.4000 47.1000 2 5 85
1937003S13047 1937 1 SI MM NOT_NAMED 1937-01-09 21:00:00 TS -19.3403 47.7913 main 0 0 _____P___PP___ -1 -19.2666 48.2181 99 -19.3573 47.8200 TC 35 -19.3970 47.3359 2 5 82
1937003S13047 1937 1 SI MM NOT_NAMED 1937-01-10 00:00:00 TS -19.2986 48.0600 main 0 0 _____P___OP___ -1 -19.2167 48.5176 99 -19.3000 48.1000 TC 35 -19.3792 47.5624 2 6 81
1937003S13047 1937 1 SI MM NOT_NAMED 1937-01-10 03:00:00 TS -19.2551 48.3824 main 0 0 _____P___PP___ -1 -19.1609 48.8120 99 -19.2576 48.5275 TC 35 -19.3469 47.8077 2 6 81
1937003S13047 1937 1 SI MM NOT_NAMED 1937-01-10 06:00:00 TS -19.2000 48.7333 reunion main 0 0 _____O___OO___ -1 -19.1000 49.1000 99 9.90000 -19.2000 49.0000 TC 35 -19.3000 48.1000 2 7 79
1937003S13047 1937 1 SI MM NOT_NAMED 1937-01-10 09:00:00 TS -19.1247 49.0865 main 10 10 _____P___PP___ -1 -19.0227 49.3577 99 -19.1074 49.4150 TC 35 -19.2438 48.4870 2 7 76
1937003S13047 1937 1 SI MM NOT_NAMED 1937-01-10 12:00:00 TS -19.0368 49.4423 main 31 31 _____P___OP___ -1 -18.9374 49.6066 99 -19.0000 49.8000 TC 35 -19.1730 48.9201 2 7 75
1937003S13047 1937 1 SI MM NOT_NAMED 1937-01-10 15:00:00 TS -18.9463 49.7925 main 67 67 _____P___PP___ -1 -18.8484 49.8520 99 -18.8999 50.1574 TC 35 -19.0907 49.3682 2 7 74
1937003S13047 1937 1 SI MM NOT_NAMED 1937-01-10 18:00:00 TS -18.8534 50.1329 main 97 97 _____P___OO___ -1 -18.7601 50.0987 99 -18.8000 50.5000 TC 35 -19.0000 49.8000 2 7 72
1937003S13047 1937 1 SI MM NOT_NAMED 1937-01-10 21:00:00 TS -18.7493 50.4488 main 119 119 _____P___PP___ -1 -18.6768 50.3517 99 -18.6848 50.8350 TC 35 -18.8863 50.1595 2 6 72
1937003S13047 1937 1 SI MM NOT_NAMED 1937-01-11 00:00:00 TS -18.6573 50.7722 main 157 154 _____P___OP___ -1 -18.6028 50.6163 99 -18.6000 51.2000 TC 35 -18.7692 50.5003 2 7 77
1937003S13047 1937 1 SI MM NOT_NAMED 1937-01-11 03:00:00 TS -18.5959 51.1269 main 184 184 _____P___PP___ -1 -18.5425 50.8973 99 -18.5775 51.6425 TC 35 -18.6675 50.8409 2 7 83
1937003S13047 1937 1 SI MM NOT_NAMED 1937-01-11 06:00:00 TS -18.5667 51.5000 reunion main 226 226 _____O___OO___ -1 -18.5000 51.2000 99 9.90000 -18.6000 52.1000 TC 35 -18.6000 51.2000 2 7 87
1937003S13047 1937 1 SI MM NOT_NAMED 1937-01-11 09:00:00 TS -18.5616 51.8937 main 267 267 _____P___PP___ -1 -18.4656 51.5621 99 -18.6424 52.5075 TC 35 -18.5769 51.6114 2 8 91
1937003S13047 1937 1 SI MM NOT_NAMED 1937-01-11 12:00:00 TS -18.5784 52.2968 main 309 309 _____P___OP___ -1 -18.4452 51.9480 99 -18.7000 52.9000 TC 35 -18.5901 52.0423 2 8 93
1937003S13047 1937 1 SI MM NOT_NAMED 1937-01-11 15:00:00 TS -18.6028 52.7114 main 351 351 _____P___PP___ -1 -18.4403 52.3494 99 -18.7350 53.3076 TC 35 -18.6332 52.4771 2 8 95
1937003S13047 1937 1 SI MM NOT_NAMED 1937-01-11 18:00:00 TS -18.6507 53.1194 main 345 318 _____P___OO___ -1 -18.4522 52.7580 99 -18.8000 53.7000 TC 35 -18.7000 52.9000 2 8 100
1937003S13047 1937 1 SI MM NOT_NAMED 1937-01-11 21:00:00 TS -18.7331 53.5172 main 318 286 _____P___PP___ -1 -18.4825 53.1657 99 -18.9425 54.0724 TC 35 -18.7743 53.3136 2 8 104
1937003S13047 1937 1 SI MM NOT_NAMED 1937-01-12 00:00:00 TS -18.8342 53.8913 main 286 261 _____P___OP___ -1 -18.5328 53.5640 99 -19.1000 54.4000 TC 35 -18.8700 53.7098 2 7 106
1937003S13047 1937 1 SI MM NOT_NAMED 1937-01-12 03:00:00 TS -18.9284 54.2312 main 261 238 _____P___PP___ -1 -18.6047 53.9449 99 -19.1999 54.6726 TC 35 -18.9806 54.0761 2 6 108
1937003S13047 1937 1 SI MM NOT_NAMED 1937-01-12 06:00:00 TS -19.0333 54.5333 reunion main 238 207 _____O___OO___ -1 -18.7000 54.3000 99 9.90000 -19.3000 54.9000 TC 35 -19.1000 54.4000 2 6 113
1937003S13047 1937 1 SI MM NOT_NAMED 1937-01-12 09:00:00 TS -19.1588 54.7986 main 207 192 _____P___PP___ -1 -18.8089 54.6160 99 -19.4500 55.1075 TC 50 -19.2174 54.6723 2 5 119
1937003S13047 1937 1 SI MM NOT_NAMED 1937-01-12 12:00:00 TS -19.2948 55.0378 main 192 178 _____P___OP___ -1 -18.9423 54.9108 99 -19.6000 55.3000 TC 65 -19.3420 54.9027 2 5 121
1937003S13047 1937 1 SI MM NOT_NAMED 1937-01-12 15:00:00 TS -19.4226 55.2641 main 178 167 _____P___PP___ -1 -19.0973 55.1857 99 -19.7000 55.5001 TC 65 -19.4706 55.1067 2 5 122
1937003S13047 1937 1 SI MM NOT_NAMED 1937-01-12 18:00:00 TS -19.5571 55.4806 main 156 145 _____P___OO___ -1 -19.2712 55.4417 99 -19.8000 55.7000 TC 65 -19.6000 55.3000 4 5 125
1937003S13047 1937 1 SI MM NOT_NAMED 1937-01-12 21:00:00 TS -19.7016 55.6920 main 145 124 _____P___PP___ -1 -19.4612 55.6800 99 -19.9350 55.8926 TC 65 -19.7086 55.5034 4 5 128
1937003S13047 1937 1 SI MM NOT_NAMED 1937-01-13 00:00:00 TS -19.8615 55.9007 main 124 116 _____P___OP___ -1 -19.6646 55.9018 99 -20.1000 56.1000 TC 65 -19.8198 55.7004 4 5 130
1937003S13047 1937 1 SI MM NOT_NAMED 1937-01-13 03:00:00 TS -20.0365 56.1184 main 119 108 _____P___PP___ -1 -19.8784 56.1081 99 -20.2850 56.3500 TC 65 -19.9461 55.8972 4 6 132
1937003S13047 1937 1 SI MM NOT_NAMED 1937-01-13 06:00:00 TS -20.2333 56.3333 reunion main 109 84 _____O___OO___ -1 -20.1000 56.3000 99 9.90000 -20.5000 56.6000 TC 65 -20.1000 56.1000 4 6 134
1937003S13047 1937 1 SI MM NOT_NAMED 1937-01-13 09:00:00 TS -20.4253 56.5404 main 84 63 _____P___PP___ -1 -20.2412 56.4763 99 -20.7425 56.8150 TC 65 -20.2922 56.3299 4 5 137
1937003S13047 1937 1 SI MM NOT_NAMED 1937-01-13 12:00:00 TS -20.6323 56.7330 main 63 53 _____P___OP___ -1 -20.3842 56.6340 99 -21.0000 57.0000 TC 65 -20.5126 56.5648 4 5 141
1937003S13047 1937 1 SI MM NOT_NAMED 1937-01-13 15:00:00 TS -20.8478 56.9095 main 53 53 _____P___PP___ -1 -20.5419 56.7786 99 -21.2500 57.1576 TC 65 -20.7516 56.7924 4 5 144
1937003S13047 1937 1 SI MM NOT_NAMED 1937-01-13 18:00:00 TS -21.0757 57.0718 main 70 70 _____P___OO___ -1 -20.7270 56.9155 99 -21.5000 57.3000 TC 65 -21.0000 57.0000 4 5 146
1937003S13047 1937 1 SI MM NOT_NAMED 1937-01-13 21:00:00 TS -21.2629 57.2117 main 90 89 _____P___PP___ -1 -20.9525 57.0504 99 -21.6749 57.4281 TC 65 -21.1614 57.1567 4 5 149
1937003S13047 1937 1 SI MM NOT_NAMED 1937-01-14 00:00:00 TS -21.5245 57.3612 main 111 111 _____P___OP___ -1 -21.2313 57.1889 99 -22.0000 57.6000 TC 65 -21.3423 57.2947 4 8 155
1937003S13047 1937 1 SI MM NOT_NAMED 1937-01-14 03:00:00 TS -21.9511 57.5546 main 167 167 _____P___PP___ -1 -21.5761 57.3368 99 -22.6752 57.8919 TC 65 -21.6020 57.4352 4 11 159
1937003S13047 1937 1 SI MM NOT_NAMED 1937-01-14 06:00:00 TS -22.5000 57.7667 reunion main 223 223 _____O___OO___ -1 -22.0000 57.5000 99 9.90000 -23.5000 58.2000 TC 65 -22.0000 57.6000 4 12 162
1937003S13047 1937 1 SI MM NOT_NAMED 1937-01-14 09:00:00 TS -23.1215 57.9698 main 292 292 _____P___PP___ -1 -22.5077 57.6353 99 -24.2499 58.4302 TC 65 -22.6067 57.8439 4 14 165
1937003S13047 1937 1 SI MM NOT_NAMED 1937-01-14 12:00:00 TS -23.8143 58.1630 main 372 372 _____P___OP___ -1 -23.0921 57.7766 99 -25.0000 58.6000 TC 65 -23.3507 58.1124 4 15 167
1937003S13047 1937 1 SI MM NOT_NAMED 1937-01-14 15:00:00 TS -24.5544 58.3418 main 448 448 _____P___PP___ -1 -23.7440 57.9350 99 -25.7499 58.7154 TC 50 -24.1693 58.3751 4 15 168
1937003S13047 1937 1 SI MM NOT_NAMED 1937-01-14 18:00:00 TS -25.3181 58.5074 main 525 525 _____P___OO___ -1 -24.4544 58.1222 99 -26.5000 58.8000 TC 35 -25.0000 58.6000 4 15 170
1937003S13047 1937 1 SI MM NOT_NAMED 1937-01-14 21:00:00 TS -26.0489 58.6186 main 597 597 _____P___PP___ -1 -25.2142 58.3497 99 -27.2122 58.8418 TC 35 -25.7204 58.6644 4 15 171
1937003S13047 1937 1 SI MM NOT_NAMED 1937-01-15 00:00:00 TS -26.8200 58.7759 main 685 685 _____P___OP___ -1 -26.0144 58.6300 99 -28.0000 59.0000 TC 35 -26.4456 58.6978 4 17 167
1937003S13047 1937 1 SI MM NOT_NAMED 1937-01-15 03:00:00 TS -27.6763 59.0532 main 787 787 _____P___PP___ -1 -26.8460 58.9757 99 -28.9848 59.4023 TC 35 -27.1980 58.7817 4 19 161
1937003S13047 1937 1 SI MM NOT_NAMED 1937-01-15 06:00:00 TS -28.5667 59.4667 reunion main 895 895 _____O___OO___ -1 -27.7000 59.4000 99 9.90000 -30.0000 60.0000 TC 35 -28.0000 59.0000 2 20 154
1937003S13047 1937 1 SI MM NOT_NAMED 1937-01-15 09:00:00 TS -29.4821 60.0405 main 1006 1006 _____P___PP___ -1 -28.6564 60.0259 99 -30.8795 60.6839 TC 35 -28.9103 59.4118 2 22 149
1937003S13047 1937 1 SI MM NOT_NAMED 1937-01-15 12:00:00 TS -30.4072 60.7440 main 1126 1126 _____P___OP___ -1 -29.6584 60.7530 99 -31.7000 61.5000 TC 35 -29.8633 59.9790 2 23 145
1937003S13047 1937 1 SI MM NOT_NAMED 1937-01-15 15:00:00 TS -31.3398 61.5465 main 1251 1251 _____P___PP___ -1 -30.6728 61.5517 99 -32.5370 62.4055 TC 35 -30.8095 60.6822 2 22 142
1937003S13047 1937 1 SI MM NOT_NAMED 1937-01-15 18:00:00 TS -32.1242 62.3418 main 1366 1366 _____P___OO___ -1 -31.6666 62.3898 99 -33.3000 63.4000 TC 35 -31.7000 61.5000 2 20 138
1937003S13047 1937 1 SI MM NOT_NAMED 1937-01-15 21:00:00 TS -32.8299 63.1446 main 1472 1472 _____P___PP___ -1 -32.6071 63.2325 99 -33.9392 64.4379 TC 35 -32.4980 62.4100 2 19 135
1937003S13047 1937 1 SI MM NOT_NAMED 1937-01-16 00:00:00 TS -33.4996 63.9808 main 1579 1579 _____P___OP___ -1 -33.4629 64.0421 99 -34.5000 65.5000 TC 35 -33.2150 63.3927 2 18 135
1937003S13047 1937 1 SI MM NOT_NAMED 1937-01-16 03:00:00 NR -34.0939 64.6621 main 1667 1594 _____P____P___ -1 -34.2036 64.7786 99 TC -33.8745 64.4291 2 17 136
1937003S13047 1937 1 SI MM NOT_NAMED 1937-01-16 06:00:00 NR -34.7400 65.4200 reunion main 1594 1532 _____O____O___ -1 -34.8000 65.4000 99 9.90000 -34.5000 65.5000 2 15 139
1937003S13047 1937 1 SI MM NOT_NAMED 1937-01-16 09:00:00 NR -35.2324 65.8732 main 1532 1495 _____P________ -1 -35.2324 65.8732 99 2 10 140
1937003S13047 1937 1 SI MM NOT_NAMED 1937-01-16 12:00:00 NR -35.5156 66.2045 main 1495 1471 _____P________ -1 -35.5156 66.2045 99 2 6 135
1937003S13047 1937 1 SI MM NOT_NAMED 1937-01-16 15:00:00 NR -35.6720 66.4120 main 1471 1469 _____P________ -1 -35.6720 66.4120 99 2 3 129
1937003S13047 1937 1 SI MM NOT_NAMED 1937-01-16 18:00:00 NR -35.7234 66.5153 main 1469 1469 _____P________ -1 -35.7234 66.5153 99 1 101
1937003S13047 1937 1 SI MM NOT_NAMED 1937-01-16 21:00:00 NR -35.6909 66.5347 main 1469 1469 _____P________ -1 -35.6909 66.5347 99 1 0
1937003S13047 1937 1 SI MM NOT_NAMED 1937-01-17 00:00:00 NR -35.5957 66.4912 main 1481 1481 _____P________ -1 -35.5957 66.4912 99 3 335
1937003S13047 1937 1 SI MM NOT_NAMED 1937-01-17 03:00:00 NR -35.4584 66.4059 main 1493 1493 _____P________ -1 -35.4584 66.4059 99 3 332
1937003S13047 1937 1 SI MM NOT_NAMED 1937-01-17 06:00:00 NR -35.3000 66.3000 reunion main 1516 _____O________ -1 -35.3000 66.3000 99 9.90000 4 331

About IBTrACS Database

This database is a web-friendly format of International Best Track Archive for Climate Stewardship (IBTrACS), a global best track data archive curated by NOAA dating back to 1842.

Updated: 2021-10-08